Terminal Aerodrome Forecast
Issued by NWS

Home | Current Version | Previous Version | Text Only | Print | Product List | Glossary On
Versions: 1 2 3 4 5 6 7 8 9 10 11 12 13 14 15 16 17 18 19 20 21 22 23 24 25 26 27 28 29 30 31 32
000
FTUS41 KPBZ 240211 AAA
TAFHLG
TAF AMD
KHLG 240211Z 2402/2424 25005KT P6SM BKN035
     FM240400 24010KT P6SM OVC025
     FM240600 28005KT P6SM OVC015
     FM241100 01005KT 3SM -SHRA BR OVC008
     FM241700 06005KT 2SM SHRA BR OVC008
     FM242100 09005KT 3SM -SHRA OVC010=

USA.gov is the U.S. government's official web portal to all federal, state and local government web resources and services.